• Join FlightAware (Why Join?)
  • Login
  • US Flag 
12:21AM EDT


 

Airport Tracker/Info


-or-


 

Live Flight TrackerFlight Track Log ✈ SWA1707 ✈ 29-Apr-2013 ✈ KDAL - KABQ

Flight Track Log - Related Links

Times and Time Zones

All times are in EDT time to prevent confusion due to time zone crossing. See the SWA1707 flight status page for this flight to view local times or setup timezone preferences in your user account.

Time Position Orientation Groundspeed Altitude Reporting Facility
EDT Latitude Longitude Course Direction KTS MPH feet Rate Location/Type
10:42PM 32.8333 -96.8333 180° South 158 182 1,600  Level Dallas / Fort Worth TRACON
10:43PM 32.8000 -96.8333 180° South 187 215 2,900 2,700 Climbing Dallas / Fort Worth TRACON
10:44PM 32.7500 -96.8000 151° Southeast 217 250 6,000 2,940 Climbing Dallas / Fort Worth TRACON
10:45PM 32.7333 -96.8667 253° West 284 327 8,800 2,640 Climbing Dallas / Fort Worth TRACON
10:47PM 32.7556 -97.0675 278° West 364 419 13,900 2,580 Climbing Fort Worth Center
10:48PM 32.7747 -97.1714 282° West 355 409 16,600 2,700 Climbing Fort Worth Center
10:49PM 32.7978 -97.3022 282° West 361 415 19,300 2,460 Climbing Fort Worth Center
10:50PM 32.8144 -97.4158 280° West 382 440 21,600 2,160 Climbing Fort Worth Center
10:51PM 32.8375 -97.5394 283° West 388 447 23,700 1,920 Climbing Fort Worth Center
10:52PM 32.8831 -97.6756 292° West 393 452 25,500 1,860 Climbing Fort Worth Center
10:53PM 32.9267 -97.8094 291° West 431 496 27,500 1,740 Climbing Fort Worth Center
10:54PM 32.9722 -97.9408 292° West 431 496 29,000 1,740 Climbing Fort Worth Center
10:55PM 33.0111 -98.0600 291° West 431 496 31,000 1,980 Climbing Fort Worth Center
10:56PM 33.0606 -98.2042 292° West 431 496 33,000 1,800 Climbing Fort Worth Center
10:57PM 33.0972 -98.3161 291° West 423 487 34,700 1,500 Climbing Fort Worth Center
10:58PM 33.1442 -98.4556 292° West 413 475 36,000 600 Climbing Fort Worth Center
10:59PM 33.1869 -98.5850 292° West 413 475 36,000  Level Fort Worth Center
11:00PM 33.2294 -98.7122 292° West 418 481 36,000  Level Fort Worth Center
11:01PM 33.2719 -98.8419 291° West 418 481 36,000  Level Fort Worth Center
11:02PM 33.3122 -98.9719 290° West 418 481 36,000  Level Fort Worth Center
11:03PM 33.3542 -99.1019 291° West 418 481 36,000  Level Fort Worth Center
11:04PM 33.3983 -99.2347 292° West 418 481 36,000  Level Fort Worth Center
11:05PM 33.4403 -99.3625 292° West 418 481 36,000  Level Fort Worth Center
11:06PM 33.4839 -99.4981 291° West 418 481 36,000  Level Fort Worth Center
11:07PM 33.5256 -99.6261 291° West 418 481 36,000  Level Fort Worth Center
11:08PM 33.5669 -99.7567 291° West 418 481 36,000  Level Fort Worth Center
11:09PM 33.6083 -99.8900 290° West 418 481 36,000  Level Fort Worth Center
11:10PM 33.6494 -100.0208 291° West 418 481 36,000  Level Fort Worth Center
11:11PM 33.6925 -100.1522 292° West 418 481 36,000 -60 Level Fort Worth Center
11:12PM 33.7314 -100.2856 289° West 418 481 35,900  Descending Fort Worth Center
11:13PM 33.7722 -100.4144 291° West 418 481 36,000  Climbing Fort Worth Center
11:14PM 33.8108 -100.5408 290° West 413 475 36,000  Level Fort Worth Center
11:15PM 33.8514 -100.6697 291° West 413 475 36,000  Level Fort Worth Center
11:16PM 33.8897 -100.7914 291° West 405 466 36,000  Level Fort Worth Center
11:17PM 33.9278 -100.9231 289° West 410 472 36,000  Level Fort Worth Center
11:18PM 33.9700 -101.0522 292° West 421 484 36,000  Level Fort Worth Center
11:19PM 34.0044 -101.1639 290° West 414 476 36,000  Level Fort Worth Center
11:20PM 34.0458 -101.3061 289° West 414 476 36,000  Level Fort Worth Center
11:21PM 34.0800 -101.4181 290° West 409 471 36,000  Level Fort Worth Center
11:22PM 34.1211 -101.5653 289° West 415 478 36,000  Level Fort Worth Center
11:23PM 34.1567 -101.6825 290° West 413 475 36,000  Level Fort Worth Center
11:24PM 34.1978 -101.8228 290° West 413 475 36,000  Level Fort Worth Center
11:25PM 34.2369 -101.9503 290° West 413 475 36,000  Level Fort Worth Center
11:27PM 34.3003 -102.1644 290° West 413 475 36,000  Level Albuquerque Center
11:28PM 34.3389 -102.2964 290° West 414 476 36,000  Level Albuquerque Center
11:29PM 34.3767 -102.4272 289° West 413 475 36,000  Level Albuquerque Center
11:30PM 34.4150 -102.5569 290° West 410 472 36,000  Level Albuquerque Center
11:31PM 34.4528 -102.6886 289° West 412 474 36,000  Level Albuquerque Center
11:32PM 34.4958 -102.8381 289° West 413 475 36,000  Level Albuquerque Center
11:33PM 34.5131 -102.9775 279° West 413 475 36,000  Level Albuquerque Center
11:34PM 34.5292 -103.1183 278° West 417 480 36,000  Level Albuquerque Center
11:35PM 34.5472 -103.2581 279° West 417 480 36,000  Level Albuquerque Center
11:36PM 34.5633 -103.3978 278° West 416 479 36,000  Level Albuquerque Center
11:37PM 34.5792 -103.5383 278° West 416 479 36,000  Level Albuquerque Center
11:38PM 34.6075 -103.6769 284° West 418 481 36,000  Level Albuquerque Center
11:39PM 34.6411 -103.8125 287° West 416 479 36,000  Level Albuquerque Center
11:40PM 34.6736 -103.9503 286° West 417 480 36,000  Level Albuquerque Center
11:41PM 34.7078 -104.0883 287° West 421 484 36,000  Level Albuquerque Center
11:42PM 34.7417 -104.2281 286° West 424 488 36,000  Level Albuquerque Center
11:43PM 34.7758 -104.3686 287° West 427 491 36,000  Level Albuquerque Center
11:44PM 34.8092 -104.5122 286° West 433 498 36,000  Level Albuquerque Center
11:45PM 34.8406 -104.6578 285° West 437 503 36,000  Level Albuquerque Center
11:46PM 34.8531 -104.8094 276° West 442 509 36,000 -840 Level Albuquerque Center
11:47PM 34.8669 -104.9569 277° West 437 503 34,300 -2,580 Descending Albuquerque Center
11:48PM 34.8822 -105.1275 276° West 432 497 30,800 -2,820 Descending Albuquerque Center
11:49PM 34.8942 -105.2700 276° West 424 488 28,600 -2,160 Descending Albuquerque Center
11:50PM 34.9072 -105.4028 277° West 396 456 26,400 -1,860 Descending Albuquerque Center
11:51PM 34.9189 -105.5314 276° West 383 441 24,900 -1,740 Descending Albuquerque Center
11:52PM 34.9289 -105.6556 276° West 369 425 22,900 -2,100 Descending Albuquerque Center
11:53PM 34.9353 -105.7697 274° West 361 415 21,000 -1,980 Descending Albuquerque Center
11:54PM 34.9486 -105.8939 277° West 347 399 18,900 -1,620 Descending Albuquerque Center
11:55PM 34.9553 -105.9872 275° West 334 384 17,600 -1,320 Descending Albuquerque Center
11:56PM 34.9572 -106.1053 271° West 298 343 16,300 -1,500 Descending Albuquerque Center
11:57PM 34.9578 -106.2153 270° West 293 337 14,500 -1,620 Descending Albuquerque Center
11:58PM 34.9594 -106.3036 271° West 292 336 13,000 -1,560 Descending Albuquerque Center
11:59PM 34.9600 -106.3981 270° West 283 326 11,400 -1,380 Descending Albuquerque Center
12:00AM 34.9561 -106.4906 267° West 277 319 10,300 -840 Descending Albuquerque Center
12:01AM 34.9392 -106.5683 255° West 263 303 9,800 -1,020 Descending Albuquerque Center
12:02AM 34.8889 -106.6347 227° Southwest 243 280 8,300 -1,200 Descending Albuquerque Center
12:03AM 34.8969 -106.6922 280° West 196 226 7,400 -480 Descending Albuquerque Center
12:04AM 34.9478 -106.7025 351° North 181 208 7,400 -600 Level Albuquerque Center
12:05AM 34.9856 -106.6747 31° Northeast 156 180 6,300 -960 Descending Albuquerque Center
12:06AM 35.0192 -106.6350 44° Northeast 154 177 5,500 -480 Descending Albuquerque Center
12:08AM 35.0436 -106.6039 46° Northeast 162 186 5,400 -120 Descending Albuquerque Center